sensor_id;sensor_type;location;lat;lon;timestamp;P1;durP1;ratioP1;P2;durP2;ratioP2
70150;SDS011;57517;43.562;19.540;2023-11-21T00:01:41;47.30;;;35.92;;
70150;SDS011;57517;43.562;19.540;2023-11-21T00:04:07;45.80;;;34.00;;
70150;SDS011;57517;43.562;19.540;2023-11-21T00:06:33;44.95;;;34.95;;
70150;SDS011;57517;43.562;19.540;2023-11-21T00:08:59;45.22;;;32.83;;
70150;SDS011;57517;43.562;19.540;2023-11-21T00:11:25;44.53;;;32.90;;
70150;SDS011;57517;43.562;19.540;2023-11-21T00:13:51;54.75;;;39.65;;
70150;SDS011;57517;43.562;19.540;2023-11-21T00:16:17;63.33;;;43.25;;
70150;SDS011;57517;43.562;19.540;2023-11-21T00:18:43;69.55;;;53.10;;
70150;SDS011;57517;43.562;19.540;2023-11-21T00:21:08;76.32;;;54.00;;
70150;SDS011;57517;43.562;19.540;2023-11-21T00:23:34;64.88;;;47.72;;
70150;SDS011;57517;43.562;19.540;2023-11-21T00:26:00;70.47;;;48.92;;
70150;SDS011;57517;43.562;19.540;2023-11-21T00:28:26;63.42;;;45.50;;
70150;SDS011;57517;43.562;19.540;2023-11-21T00:30:52;61.78;;;45.08;;
70150;SDS011;57517;43.562;19.540;2023-11-21T00:33:17;59.28;;;42.55;;
70150;SDS011;57517;43.562;19.540;2023-11-21T00:35:43;59.75;;;43.75;;
70150;SDS011;57517;43.562;19.540;2023-11-21T00:38:09;58.70;;;44.42;;
70150;SDS011;57517;43.562;19.540;2023-11-21T00:40:35;65.57;;;46.83;;
70150;SDS011;57517;43.562;19.540;2023-11-21T00:43:00;62.40;;;46.72;;
70150;SDS011;57517;43.562;19.540;2023-11-21T00:45:26;63.53;;;48.50;;
70150;SDS011;57517;43.562;19.540;2023-11-21T00:47:52;68.10;;;49.95;;
70150;SDS011;57517;43.562;19.540;2023-11-21T00:50:18;67.53;;;48.38;;
70150;SDS011;57517;43.562;19.540;2023-11-21T00:52:44;57.65;;;45.33;;
70150;SDS011;57517;43.562;19.540;2023-11-21T00:55:10;59.03;;;46.95;;
70150;SDS011;57517;43.562;19.540;2023-11-21T00:57:37;59.13;;;45.92;;
70150;SDS011;57517;43.562;19.540;2023-11-21T01:00:02;57.03;;;44.95;;
70150;SDS011;57517;43.562;19.540;2023-11-21T01:02:33;56.95;;;45.30;;
70150;SDS011;57517;43.562;19.540;2023-11-21T01:05:00;61.70;;;45.08;;
70150;SDS011;57517;43.562;19.540;2023-11-21T01:07:26;58.63;;;43.45;;
70150;SDS011;57517;43.562;19.540;2023-11-21T01:09:52;58.47;;;45.20;;
70150;SDS011;57517;43.562;19.540;2023-11-21T01:12:18;58.42;;;44.65;;
70150;SDS011;57517;43.562;19.540;2023-11-21T01:14:44;62.50;;;45.28;;
70150;SDS011;57517;43.562;19.540;2023-11-21T01:17:10;68.93;;;48.22;;
70150;SDS011;57517;43.562;19.540;2023-11-21T01:19:36;57.03;;;43.72;;
70150;SDS011;57517;43.562;19.540;2023-11-21T01:22:02;56.58;;;42.72;;
70150;SDS011;57517;43.562;19.540;2023-11-21T01:24:28;62.15;;;44.17;;
70150;SDS011;57517;43.562;19.540;2023-11-21T01:26:54;58.60;;;45.33;;
70150;SDS011;57517;43.562;19.540;2023-11-21T01:29:20;60.47;;;45.10;;
70150;SDS011;57517;43.562;19.540;2023-11-21T01:31:46;61.22;;;44.67;;
70150;SDS011;57517;43.562;19.540;2023-11-21T01:34:12;54.75;;;42.33;;
70150;SDS011;57517;43.562;19.540;2023-11-21T01:36:38;58.72;;;41.83;;
70150;SDS011;57517;43.562;19.540;2023-11-21T01:39:03;54.80;;;42.10;;
70150;SDS011;57517;43.562;19.540;2023-11-21T01:41:33;51.45;;;38.30;;
70150;SDS011;57517;43.562;19.540;2023-11-21T01:44:00;50.60;;;36.47;;
70150;SDS011;57517;43.562;19.540;2023-11-21T01:46:25;45.75;;;34.50;;
70150;SDS011;57517;43.562;19.540;2023-11-21T01:48:51;43.33;;;32.70;;
70150;SDS011;57517;43.562;19.540;2023-11-21T01:51:19;46.67;;;34.83;;
70150;SDS011;57517;43.562;19.540;2023-11-21T01:53:45;44.40;;;35.28;;
70150;SDS011;57517;43.562;19.540;2023-11-21T01:56:11;48.10;;;36.05;;
70150;SDS011;57517;43.562;19.540;2023-11-21T01:58:38;54.80;;;38.28;;
70150;SDS011;57517;43.562;19.540;2023-11-21T02:01:04;48.58;;;36.90;;
70150;SDS011;57517;43.562;19.540;2023-11-21T02:03:30;55.08;;;39.75;;
70150;SDS011;57517;43.562;19.540;2023-11-21T02:05:56;49.22;;;39.03;;
70150;SDS011;57517;43.562;19.540;2023-11-21T02:08:22;48.28;;;38.47;;
70150;SDS011;57517;43.562;19.540;2023-11-21T02:10:48;44.70;;;34.33;;
70150;SDS011;57517;43.562;19.540;2023-11-21T02:13:13;43.38;;;33.45;;
70150;SDS011;57517;43.562;19.540;2023-11-21T02:15:40;38.97;;;31.85;;
70150;SDS011;57517;43.562;19.540;2023-11-21T02:18:06;40.00;;;31.95;;
70150;SDS011;57517;43.562;19.540;2023-11-21T02:20:32;43.05;;;34.05;;
70150;SDS011;57517;43.562;19.540;2023-11-21T02:22:59;49.30;;;37.88;;
70150;SDS011;57517;43.562;19.540;2023-11-21T02:25:30;51.65;;;38.78;;
70150;SDS011;57517;43.562;19.540;2023-11-21T02:27:57;44.63;;;35.55;;
70150;SDS011;57517;43.562;19.540;2023-11-21T02:30:25;48.10;;;38.45;;
70150;SDS011;57517;43.562;19.540;2023-11-21T02:32:52;58.88;;;44.50;;
70150;SDS011;57517;43.562;19.540;2023-11-21T02:35:18;60.33;;;46.25;;
70150;SDS011;57517;43.562;19.540;2023-11-21T02:37:47;58.60;;;43.17;;
70150;SDS011;57517;43.562;19.540;2023-11-21T02:40:13;56.88;;;42.45;;
70150;SDS011;57517;43.562;19.540;2023-11-21T02:42:45;59.03;;;42.63;;
70150;SDS011;57517;43.562;19.540;2023-11-21T02:45:12;51.92;;;38.38;;
70150;SDS011;57517;43.562;19.540;2023-11-21T02:47:41;49.05;;;37.40;;
70150;SDS011;57517;43.562;19.540;2023-11-21T02:50:10;49.42;;;38.80;;
70150;SDS011;57517;43.562;19.540;2023-11-21T02:52:36;49.63;;;38.50;;
70150;SDS011;57517;43.562;19.540;2023-11-21T02:55:03;48.67;;;36.50;;
70150;SDS011;57517;43.562;19.540;2023-11-21T02:57:29;47.42;;;35.78;;
70150;SDS011;57517;43.562;19.540;2023-11-21T02:59:55;54.15;;;39.30;;
70150;SDS011;57517;43.562;19.540;2023-11-21T03:02:21;55.78;;;38.17;;
70150;SDS011;57517;43.562;19.540;2023-11-21T03:04:47;42.80;;;35.28;;
70150;SDS011;57517;43.562;19.540;2023-11-21T03:07:14;46.00;;;36.22;;
70150;SDS011;57517;43.562;19.540;2023-11-21T03:09:40;50.65;;;36.63;;
70150;SDS011;57517;43.562;19.540;2023-11-21T03:12:06;52.22;;;40.55;;
70150;SDS011;57517;43.562;19.540;2023-11-21T03:14:32;61.20;;;44.80;;
70150;SDS011;57517;43.562;19.540;2023-11-21T03:16:58;53.55;;;36.67;;
70150;SDS011;57517;43.562;19.540;2023-11-21T03:19:24;50.53;;;36.45;;
70150;SDS011;57517;43.562;19.540;2023-11-21T03:21:50;46.47;;;33.95;;
70150;SDS011;57517;43.562;19.540;2023-11-21T03:24:18;48.67;;;34.95;;
70150;SDS011;57517;43.562;19.540;2023-11-21T03:26:45;45.95;;;33.97;;
70150;SDS011;57517;43.562;19.540;2023-11-21T03:29:12;51.40;;;36.60;;
70150;SDS011;57517;43.562;19.540;2023-11-21T03:31:38;47.08;;;34.00;;
70150;SDS011;57517;43.562;19.540;2023-11-21T03:34:04;44.53;;;34.47;;
70150;SDS011;57517;43.562;19.540;2023-11-21T03:36:30;51.80;;;38.10;;
70150;SDS011;57517;43.562;19.540;2023-11-21T03:38:55;50.28;;;36.53;;
70150;SDS011;57517;43.562;19.540;2023-11-21T03:41:21;50.63;;;36.20;;
70150;SDS011;57517;43.562;19.540;2023-11-21T03:43:47;50.83;;;36.15;;
70150;SDS011;57517;43.562;19.540;2023-11-21T03:46:13;53.92;;;37.63;;
70150;SDS011;57517;43.562;19.540;2023-11-21T03:48:39;52.72;;;36.92;;
70150;SDS011;57517;43.562;19.540;2023-11-21T03:51:04;45.70;;;35.97;;
70150;SDS011;57517;43.562;19.540;2023-11-21T03:53:31;49.08;;;34.78;;
70150;SDS011;57517;43.562;19.540;2023-11-21T03:55:57;45.25;;;34.08;;
70150;SDS011;57517;43.562;19.540;2023-11-21T03:58:23;53.72;;;37.97;;
70150;SDS011;57517;43.562;19.540;2023-11-21T04:00:48;50.33;;;36.28;;
70150;SDS011;57517;43.562;19.540;2023-11-21T04:03:14;52.20;;;37.70;;
70150;SDS011;57517;43.562;19.540;2023-11-21T04:05:40;53.00;;;39.35;;
70150;SDS011;57517;43.562;19.540;2023-11-21T04:08:06;59.25;;;43.80;;
70150;SDS011;57517;43.562;19.540;2023-11-21T04:10:32;51.10;;;39.92;;
70150;SDS011;57517;43.562;19.540;2023-11-21T04:12:58;52.67;;;39.42;;
70150;SDS011;57517;43.562;19.540;2023-11-21T04:15:25;54.17;;;40.55;;
70150;SDS011;57517;43.562;19.540;2023-11-21T04:17:51;53.72;;;39.15;;
70150;SDS011;57517;43.562;19.540;2023-11-21T04:20:17;53.92;;;38.47;;
70150;SDS011;57517;43.562;19.540;2023-11-21T04:22:43;48.88;;;36.80;;
70150;SDS011;57517;43.562;19.540;2023-11-21T04:25:10;53.65;;;39.20;;
70150;SDS011;57517;43.562;19.540;2023-11-21T04:27:36;55.22;;;41.50;;
70150;SDS011;57517;43.562;19.540;2023-11-21T04:30:04;59.78;;;45.70;;
70150;SDS011;57517;43.562;19.540;2023-11-21T04:32:30;63.20;;;47.65;;
70150;SDS011;57517;43.562;19.540;2023-11-21T04:34:56;60.83;;;48.75;;
70150;SDS011;57517;43.562;19.540;2023-11-21T04:37:22;66.47;;;50.83;;
70150;SDS011;57517;43.562;19.540;2023-11-21T04:39:47;63.97;;;47.83;;
70150;SDS011;57517;43.562;19.540;2023-11-21T04:42:13;65.63;;;48.58;;
70150;SDS011;57517;43.562;19.540;2023-11-21T04:44:39;65.25;;;49.17;;
70150;SDS011;57517;43.562;19.540;2023-11-21T04:47:06;65.40;;;49.28;;
70150;SDS011;57517;43.562;19.540;2023-11-21T04:49:32;69.97;;;50.63;;
70150;SDS011;57517;43.562;19.540;2023-11-21T04:51:59;66.20;;;48.53;;
70150;SDS011;57517;43.562;19.540;2023-11-21T04:54:24;56.25;;;46.22;;
70150;SDS011;57517;43.562;19.540;2023-11-21T04:56:51;60.95;;;47.13;;
70150;SDS011;57517;43.562;19.540;2023-11-21T04:59:16;62.60;;;47.88;;
70150;SDS011;57517;43.562;19.540;2023-11-21T05:01:42;61.38;;;47.88;;
70150;SDS011;57517;43.562;19.540;2023-11-21T05:04:08;63.70;;;50.40;;
70150;SDS011;57517;43.562;19.540;2023-11-21T05:06:34;71.63;;;52.63;;
70150;SDS011;57517;43.562;19.540;2023-11-21T05:09:00;67.15;;;51.17;;
70150;SDS011;57517;43.562;19.540;2023-11-21T05:11:29;70.18;;;51.63;;
70150;SDS011;57517;43.562;19.540;2023-11-21T05:13:54;68.53;;;51.42;;
70150;SDS011;57517;43.562;19.540;2023-11-21T05:16:22;75.72;;;54.08;;
70150;SDS011;57517;43.562;19.540;2023-11-21T05:18:47;62.15;;;48.55;;
70150;SDS011;57517;43.562;19.540;2023-11-21T05:21:15;63.33;;;49.95;;
70150;SDS011;57517;43.562;19.540;2023-11-21T05:23:41;71.38;;;49.83;;
70150;SDS011;57517;43.562;19.540;2023-11-21T05:26:07;68.53;;;51.30;;
70150;SDS011;57517;43.562;19.540;2023-11-21T05:28:32;64.88;;;49.65;;
70150;SDS011;57517;43.562;19.540;2023-11-21T05:30:58;71.20;;;53.80;;
70150;SDS011;57517;43.562;19.540;2023-11-21T05:33:24;74.35;;;55.88;;
70150;SDS011;57517;43.562;19.540;2023-11-21T05:35:50;72.07;;;55.40;;
70150;SDS011;57517;43.562;19.540;2023-11-21T05:38:16;68.38;;;53.22;;
70150;SDS011;57517;43.562;19.540;2023-11-21T05:40:41;75.70;;;53.85;;
70150;SDS011;57517;43.562;19.540;2023-11-21T05:43:09;66.40;;;50.20;;
70150;SDS011;57517;43.562;19.540;2023-11-21T05:45:34;63.47;;;48.78;;
70150;SDS011;57517;43.562;19.540;2023-11-21T05:48:00;65.35;;;50.20;;
70150;SDS011;57517;43.562;19.540;2023-11-21T05:50:28;64.18;;;49.25;;
70150;SDS011;57517;43.562;19.540;2023-11-21T05:52:56;66.80;;;49.67;;
70150;SDS011;57517;43.562;19.540;2023-11-21T05:55:23;66.50;;;52.55;;
70150;SDS011;57517;43.562;19.540;2023-11-21T05:57:50;69.95;;;51.20;;
70150;SDS011;57517;43.562;19.540;2023-11-21T06:00:16;69.32;;;54.33;;
70150;SDS011;57517;43.562;19.540;2023-11-21T06:02:47;61.67;;;49.30;;
70150;SDS011;57517;43.562;19.540;2023-11-21T06:05:17;63.97;;;47.47;;
70150;SDS011;57517;43.562;19.540;2023-11-21T06:07:44;63.65;;;47.33;;
70150;SDS011;57517;43.562;19.540;2023-11-21T06:10:10;64.07;;;50.20;;
70150;SDS011;57517;43.562;19.540;2023-11-21T06:12:40;62.70;;;49.75;;
70150;SDS011;57517;43.562;19.540;2023-11-21T06:15:08;75.45;;;54.03;;
70150;SDS011;57517;43.562;19.540;2023-11-21T06:17:35;69.45;;;53.67;;
70150;SDS011;57517;43.562;19.540;2023-11-21T06:20:04;65.72;;;51.03;;
70150;SDS011;57517;43.562;19.540;2023-11-21T06:22:37;76.13;;;51.88;;
70150;SDS011;57517;43.562;19.540;2023-11-21T06:25:04;71.30;;;54.83;;
70150;SDS011;57517;43.562;19.540;2023-11-21T06:27:33;76.03;;;57.55;;
70150;SDS011;57517;43.562;19.540;2023-11-21T06:30:01;71.10;;;55.17;;
70150;SDS011;57517;43.562;19.540;2023-11-21T06:32:27;80.18;;;58.05;;
70150;SDS011;57517;43.562;19.540;2023-11-21T06:34:55;70.63;;;56.28;;
70150;SDS011;57517;43.562;19.540;2023-11-21T06:37:24;76.35;;;59.95;;
70150;SDS011;57517;43.562;19.540;2023-11-21T06:39:54;76.68;;;59.05;;
70150;SDS011;57517;43.562;19.540;2023-11-21T06:42:19;77.18;;;59.75;;
70150;SDS011;57517;43.562;19.540;2023-11-21T06:44:46;72.57;;;57.10;;
70150;SDS011;57517;43.562;19.540;2023-11-21T06:47:13;76.40;;;56.10;;
70150;SDS011;57517;43.562;19.540;2023-11-21T06:49:39;71.88;;;57.67;;
70150;SDS011;57517;43.562;19.540;2023-11-21T06:52:04;77.20;;;58.40;;
70150;SDS011;57517;43.562;19.540;2023-11-21T06:54:31;68.22;;;53.13;;
70150;SDS011;57517;43.562;19.540;2023-11-21T06:56:57;82.18;;;57.95;;
70150;SDS011;57517;43.562;19.540;2023-11-21T06:59:23;74.45;;;56.60;;
70150;SDS011;57517;43.562;19.540;2023-11-21T07:01:50;71.45;;;57.15;;
70150;SDS011;57517;43.562;19.540;2023-11-21T07:04:16;101.20;;;86.03;;
70150;SDS011;57517;43.562;19.540;2023-11-21T07:06:41;94.82;;;75.97;;
70150;SDS011;57517;43.562;19.540;2023-11-21T07:09:08;104.93;;;82.85;;
70150;SDS011;57517;43.562;19.540;2023-11-21T07:11:34;124.05;;;89.80;;
70150;SDS011;57517;43.562;19.540;2023-11-21T07:14:00;125.35;;;87.20;;
70150;SDS011;57517;43.562;19.540;2023-11-21T07:16:35;109.47;;;82.90;;
70150;SDS011;57517;43.562;19.540;2023-11-21T07:19:04;94.22;;;73.00;;
70150;SDS011;57517;43.562;19.540;2023-11-21T07:21:33;108.40;;;83.50;;
70150;SDS011;57517;43.562;19.540;2023-11-21T07:24:02;122.93;;;97.25;;
70150;SDS011;57517;43.562;19.540;2023-11-21T07:26:29;119.47;;;92.40;;
70150;SDS011;57517;43.562;19.540;2023-11-21T07:28:55;108.57;;;87.05;;
70150;SDS011;57517;43.562;19.540;2023-11-21T07:31:22;96.07;;;76.72;;
70150;SDS011;57517;43.562;19.540;2023-11-21T07:33:49;84.95;;;68.90;;
70150;SDS011;57517;43.562;19.540;2023-11-21T07:36:18;82.53;;;62.38;;
70150;SDS011;57517;43.562;19.540;2023-11-21T07:38:46;86.03;;;66.03;;
70150;SDS011;57517;43.562;19.540;2023-11-21T07:41:13;104.43;;;78.07;;
70150;SDS011;57517;43.562;19.540;2023-11-21T07:43:42;82.57;;;64.15;;
70150;SDS011;57517;43.562;19.540;2023-11-21T07:46:09;88.38;;;67.28;;
70150;SDS011;57517;43.562;19.540;2023-11-21T07:48:37;77.05;;;59.03;;
70150;SDS011;57517;43.562;19.540;2023-11-21T07:51:04;78.15;;;59.17;;
70150;SDS011;57517;43.562;19.540;2023-11-21T07:53:30;82.35;;;63.10;;
70150;SDS011;57517;43.562;19.540;2023-11-21T07:55:56;102.00;;;73.72;;
70150;SDS011;57517;43.562;19.540;2023-11-21T07:58:23;83.28;;;63.88;;
70150;SDS011;57517;43.562;19.540;2023-11-21T08:00:49;83.00;;;63.25;;
70150;SDS011;57517;43.562;19.540;2023-11-21T08:03:16;86.05;;;67.70;;
70150;SDS011;57517;43.562;19.540;2023-11-21T08:05:44;89.45;;;71.97;;
70150;SDS011;57517;43.562;19.540;2023-11-21T08:08:10;81.50;;;64.60;;
70150;SDS011;57517;43.562;19.540;2023-11-21T08:10:36;79.05;;;60.58;;
70150;SDS011;57517;43.562;19.540;2023-11-21T08:13:02;85.55;;;68.15;;
70150;SDS011;57517;43.562;19.540;2023-11-21T08:15:29;89.63;;;68.90;;
70150;SDS011;57517;43.562;19.540;2023-11-21T08:17:57;82.70;;;64.07;;
70150;SDS011;57517;43.562;19.540;2023-11-21T08:20:24;93.05;;;71.07;;
70150;SDS011;57517;43.562;19.540;2023-11-21T08:22:50;95.70;;;70.93;;
70150;SDS011;57517;43.562;19.540;2023-11-21T08:25:17;87.28;;;70.43;;
70150;SDS011;57517;43.562;19.540;2023-11-21T08:27:45;85.25;;;65.35;;
70150;SDS011;57517;43.562;19.540;2023-11-21T08:30:11;84.47;;;67.30;;
70150;SDS011;57517;43.562;19.540;2023-11-21T08:32:39;91.55;;;70.90;;
70150;SDS011;57517;43.562;19.540;2023-11-21T08:35:06;91.60;;;71.78;;
70150;SDS011;57517;43.562;19.540;2023-11-21T08:37:33;95.07;;;74.90;;
70150;SDS011;57517;43.562;19.540;2023-11-21T08:40:02;92.60;;;75.45;;
70150;SDS011;57517;43.562;19.540;2023-11-21T08:42:29;101.95;;;81.20;;
70150;SDS011;57517;43.562;19.540;2023-11-21T08:44:55;92.45;;;73.15;;
70150;SDS011;57517;43.562;19.540;2023-11-21T08:47:24;96.57;;;78.63;;
70150;SDS011;57517;43.562;19.540;2023-11-21T08:49:51;103.10;;;78.53;;
70150;SDS011;57517;43.562;19.540;2023-11-21T08:52:20;141.20;;;101.03;;
70150;SDS011;57517;43.562;19.540;2023-11-21T08:54:48;119.38;;;90.38;;
70150;SDS011;57517;43.562;19.540;2023-11-21T08:57:20;110.72;;;85.20;;
70150;SDS011;57517;43.562;19.540;2023-11-21T08:59:49;100.55;;;77.15;;
70150;SDS011;57517;43.562;19.540;2023-11-21T09:02:20;91.07;;;69.30;;
70150;SDS011;57517;43.562;19.540;2023-11-21T09:04:48;115.18;;;91.70;;
70150;SDS011;57517;43.562;19.540;2023-11-21T09:07:14;106.10;;;87.20;;
70150;SDS011;57517;43.562;19.540;2023-11-21T09:09:40;93.68;;;72.68;;
70150;SDS011;57517;43.562;19.540;2023-11-21T09:12:06;86.82;;;70.47;;
70150;SDS011;57517;43.562;19.540;2023-11-21T09:14:32;95.05;;;75.07;;
70150;SDS011;57517;43.562;19.540;2023-11-21T09:16:58;89.18;;;74.32;;
70150;SDS011;57517;43.562;19.540;2023-11-21T09:19:23;94.07;;;74.28;;
70150;SDS011;57517;43.562;19.540;2023-11-21T09:21:50;93.45;;;74.95;;
70150;SDS011;57517;43.562;19.540;2023-11-21T09:24:15;90.35;;;75.50;;
70150;SDS011;57517;43.562;19.540;2023-11-21T09:26:41;96.75;;;79.25;;
70150;SDS011;57517;43.562;19.540;2023-11-21T09:29:07;106.63;;;82.68;;
70150;SDS011;57517;43.562;19.540;2023-11-21T09:31:33;109.47;;;84.55;;
70150;SDS011;57517;43.562;19.540;2023-11-21T09:33:59;93.95;;;72.43;;
70150;SDS011;57517;43.562;19.540;2023-11-21T09:36:25;89.50;;;70.82;;
70150;SDS011;57517;43.562;19.540;2023-11-21T09:38:53;92.70;;;72.88;;
70150;SDS011;57517;43.562;19.540;2023-11-21T09:41:27;87.25;;;67.35;;
70150;SDS011;57517;43.562;19.540;2023-11-21T09:44:00;71.03;;;57.40;;
70150;SDS011;57517;43.562;19.540;2023-11-21T09:46:29;82.05;;;64.35;;
70150;SDS011;57517;43.562;19.540;2023-11-21T09:48:55;80.07;;;60.22;;
70150;SDS011;57517;43.562;19.540;2023-11-21T09:51:25;94.10;;;68.18;;
70150;SDS011;57517;43.562;19.540;2023-11-21T09:53:55;81.88;;;60.80;;
70150;SDS011;57517;43.562;19.540;2023-11-21T09:56:24;82.78;;;61.08;;
70150;SDS011;57517;43.562;19.540;2023-11-21T09:58:52;79.97;;;64.88;;
70150;SDS011;57517;43.562;19.540;2023-11-21T10:01:19;87.50;;;73.40;;
70150;SDS011;57517;43.562;19.540;2023-11-21T10:03:46;83.20;;;66.38;;
70150;SDS011;57517;43.562;19.540;2023-11-21T10:06:12;81.47;;;67.57;;
70150;SDS011;57517;43.562;19.540;2023-11-21T10:08:41;81.63;;;66.43;;
70150;SDS011;57517;43.562;19.540;2023-11-21T10:11:07;86.30;;;70.18;;
70150;SDS011;57517;43.562;19.540;2023-11-21T10:13:36;74.13;;;60.35;;
70150;SDS011;57517;43.562;19.540;2023-11-21T10:16:04;74.15;;;61.55;;
70150;SDS011;57517;43.562;19.540;2023-11-21T10:18:32;88.60;;;68.25;;
70150;SDS011;57517;43.562;19.540;2023-11-21T10:20:59;87.10;;;69.40;;
70150;SDS011;57517;43.562;19.540;2023-11-21T10:23:26;85.03;;;65.97;;
70150;SDS011;57517;43.562;19.540;2023-11-21T10:25:52;87.45;;;65.07;;
70150;SDS011;57517;43.562;19.540;2023-11-21T10:28:20;80.65;;;61.83;;
70150;SDS011;57517;43.562;19.540;2023-11-21T10:30:46;77.78;;;61.25;;
70150;SDS011;57517;43.562;19.540;2023-11-21T10:33:12;84.00;;;64.05;;
70150;SDS011;57517;43.562;19.540;2023-11-21T10:38:18;84.97;;;67.65;;
70150;SDS011;57517;43.562;19.540;2023-11-21T10:40:49;96.13;;;75.90;;
70150;SDS011;57517;43.562;19.540;2023-11-21T10:43:16;105.35;;;82.43;;
70150;SDS011;57517;43.562;19.540;2023-11-21T10:45:42;102.88;;;81.05;;
70150;SDS011;57517;43.562;19.540;2023-11-21T10:48:09;102.97;;;80.85;;
70150;SDS011;57517;43.562;19.540;2023-11-21T10:50:40;102.18;;;79.15;;
70150;SDS011;57517;43.562;19.540;2023-11-21T10:53:06;101.72;;;82.47;;
70150;SDS011;57517;43.562;19.540;2023-11-21T10:55:32;97.45;;;79.95;;
70150;SDS011;57517;43.562;19.540;2023-11-21T10:58:00;87.00;;;70.05;;
70150;SDS011;57517;43.562;19.540;2023-11-21T11:00:28;82.88;;;62.72;;
70150;SDS011;57517;43.562;19.540;2023-11-21T11:02:54;103.45;;;77.47;;
70150;SDS011;57517;43.562;19.540;2023-11-21T11:05:22;102.72;;;77.35;;
70150;SDS011;57517;43.562;19.540;2023-11-21T11:07:59;75.15;;;60.78;;
70150;SDS011;57517;43.562;19.540;2023-11-21T11:10:29;77.05;;;60.80;;
70150;SDS011;57517;43.562;19.540;2023-11-21T11:12:56;75.80;;;57.80;;
70150;SDS011;57517;43.562;19.540;2023-11-21T11:15:23;63.25;;;49.47;;
70150;SDS011;57517;43.562;19.540;2023-11-21T11:17:49;63.55;;;49.13;;
70150;SDS011;57517;43.562;19.540;2023-11-21T11:20:17;68.97;;;53.80;;
70150;SDS011;57517;43.562;19.540;2023-11-21T11:33:31;60.92;;;47.58;;
70150;SDS011;57517;43.562;19.540;2023-11-21T11:38:55;58.20;;;46.83;;
70150;SDS011;57517;43.562;19.540;2023-11-21T11:41:28;62.03;;;47.47;;
70150;SDS011;57517;43.562;19.540;2023-11-21T11:44:02;51.95;;;44.22;;
70150;SDS011;57517;43.562;19.540;2023-11-21T11:46:41;59.33;;;48.35;;
70150;SDS011;57517;43.562;19.540;2023-11-21T11:49:18;57.53;;;47.03;;
70150;SDS011;57517;43.562;19.540;2023-11-21T11:52:31;63.95;;;50.30;;
70150;SDS011;57517;43.562;19.540;2023-11-21T11:54:55;74.75;;;54.67;;
70150;SDS011;57517;43.562;19.540;2023-11-21T11:57:24;69.88;;;50.97;;
70150;SDS011;57517;43.562;19.540;2023-11-21T12:00:11;87.43;;;60.60;;
70150;SDS011;57517;43.562;19.540;2023-11-21T12:02:48;72.03;;;54.15;;
70150;SDS011;57517;43.562;19.540;2023-11-21T12:05:15;72.53;;;51.65;;
70150;SDS011;57517;43.562;19.540;2023-11-21T12:07:52;62.72;;;44.42;;
70150;SDS011;57517;43.562;19.540;2023-11-21T12:10:25;60.40;;;46.90;;
70150;SDS011;57517;43.562;19.540;2023-11-21T12:12:54;69.20;;;50.78;;
70150;SDS011;57517;43.562;19.540;2023-11-21T12:15:21;78.60;;;57.75;;
70150;SDS011;57517;43.562;19.540;2023-11-21T12:17:48;83.25;;;62.40;;
70150;SDS011;57517;43.562;19.540;2023-11-21T12:20:15;78.13;;;59.97;;
70150;SDS011;57517;43.562;19.540;2023-11-21T12:22:46;75.20;;;60.00;;
70150;SDS011;57517;43.562;19.540;2023-11-21T12:25:20;69.43;;;54.08;;
70150;SDS011;57517;43.562;19.540;2023-11-21T12:27:46;70.47;;;55.78;;
70150;SDS011;57517;43.562;19.540;2023-11-21T12:30:14;64.75;;;51.03;;
70150;SDS011;57517;43.562;19.540;2023-11-21T12:32:43;60.05;;;48.88;;
70150;SDS011;57517;43.562;19.540;2023-11-21T12:35:11;57.40;;;46.05;;
70150;SDS011;57517;43.562;19.540;2023-11-21T12:37:38;60.63;;;48.88;;
70150;SDS011;57517;43.562;19.540;2023-11-21T12:40:08;63.88;;;50.60;;
70150;SDS011;57517;43.562;19.540;2023-11-21T12:42:42;77.90;;;56.25;;
70150;SDS011;57517;43.562;19.540;2023-11-21T12:50:24;60.20;;;46.67;;
70150;SDS011;57517;43.562;19.540;2023-11-21T12:52:58;57.40;;;42.47;;
70150;SDS011;57517;43.562;19.540;2023-11-21T12:55:34;50.00;;;38.53;;
70150;SDS011;57517;43.562;19.540;2023-11-21T12:58:03;51.58;;;38.70;;
70150;SDS011;57517;43.562;19.540;2023-11-21T13:00:38;48.03;;;37.20;;
70150;SDS011;57517;43.562;19.540;2023-11-21T13:03:08;41.30;;;32.33;;
70150;SDS011;57517;43.562;19.540;2023-11-21T13:05:37;42.78;;;33.30;;
70150;SDS011;57517;43.562;19.540;2023-11-21T13:08:06;39.15;;;32.70;;
70150;SDS011;57517;43.562;19.540;2023-11-21T13:10:34;40.05;;;31.50;;
70150;SDS011;57517;43.562;19.540;2023-11-21T13:13:05;41.45;;;31.95;;
70150;SDS011;57517;43.562;19.540;2023-11-21T13:15:34;40.00;;;32.60;;
70150;SDS011;57517;43.562;19.540;2023-11-21T13:18:06;42.33;;;30.83;;
70150;SDS011;57517;43.562;19.540;2023-11-21T13:20:32;40.47;;;32.70;;
70150;SDS011;57517;43.562;19.540;2023-11-21T13:22:59;37.72;;;30.45;;
70150;SDS011;57517;43.562;19.540;2023-11-21T13:25:26;37.15;;;28.63;;
70150;SDS011;57517;43.562;19.540;2023-11-21T13:27:57;41.67;;;32.88;;
70150;SDS011;57517;43.562;19.540;2023-11-21T13:30:27;47.15;;;37.25;;
70150;SDS011;57517;43.562;19.540;2023-11-21T13:33:03;59.85;;;47.10;;
70150;SDS011;57517;43.562;19.540;2023-11-21T13:35:35;57.35;;;47.95;;
70150;SDS011;57517;43.562;19.540;2023-11-21T13:38:10;56.77;;;48.17;;
70150;SDS011;57517;43.562;19.540;2023-11-21T13:40:38;54.78;;;48.00;;
70150;SDS011;57517;43.562;19.540;2023-11-21T13:43:09;59.72;;;49.83;;
70150;SDS011;57517;43.562;19.540;2023-11-21T13:45:39;64.10;;;51.97;;
70150;SDS011;57517;43.562;19.540;2023-11-21T13:48:06;73.13;;;55.88;;
70150;SDS011;57517;43.562;19.540;2023-11-21T13:50:37;71.20;;;56.28;;
70150;SDS011;57517;43.562;19.540;2023-11-21T13:53:07;44.38;;;35.85;;
70150;SDS011;57517;43.562;19.540;2023-11-21T13:55:45;36.95;;;31.63;;
70150;SDS011;57517;43.562;19.540;2023-11-21T13:58:12;37.08;;;28.70;;
70150;SDS011;57517;43.562;19.540;2023-11-21T14:00:44;30.70;;;23.95;;
70150;SDS011;57517;43.562;19.540;2023-11-21T14:03:14;25.33;;;21.02;;
70150;SDS011;57517;43.562;19.540;2023-11-21T14:05:50;25.15;;;21.35;;
70150;SDS011;57517;43.562;19.540;2023-11-21T14:08:20;23.10;;;20.45;;
70150;SDS011;57517;43.562;19.540;2023-11-21T14:10:48;26.23;;;23.02;;
70150;SDS011;57517;43.562;19.540;2023-11-21T14:13:20;29.02;;;25.90;;
70150;SDS011;57517;43.562;19.540;2023-11-21T14:15:48;41.38;;;32.20;;
70150;SDS011;57517;43.562;19.540;2023-11-21T14:18:17;37.85;;;30.90;;
70150;SDS011;57517;43.562;19.540;2023-11-21T14:20:51;36.80;;;30.17;;
70150;SDS011;57517;43.562;19.540;2023-11-21T14:23:17;36.13;;;28.73;;
70150;SDS011;57517;43.562;19.540;2023-11-21T14:25:43;34.05;;;26.58;;
70150;SDS011;57517;43.562;19.540;2023-11-21T14:28:09;33.50;;;27.50;;
70150;SDS011;57517;43.562;19.540;2023-11-21T14:30:37;33.95;;;26.98;;
70150;SDS011;57517;43.562;19.540;2023-11-21T14:33:05;42.22;;;32.63;;